Time;durP1;ratioP1;P1;durP2;ratioP2;P2;SDS_P1;SDS_P2;PMS_P1;PMS_P2;Temp;Humidity;BMP_temperature;BMP_pressure;BME280_temperature;BME280_humidity;BME280_pressure;Samples;Min_cycle;Max_cycle;Signal;HPM_P1;HPM_P2
2022/08/24 00:00:56;;;;;;;67.55;32.63;;;19.30;99.90;;;;;;5133230;27;20023;-77
2022/08/24 00:03:21;;;;;;;71.00;32.78;;;19.20;99.90;;;;;;5136472;27;20481;-79
2022/08/24 00:05:47;;;;;;;88.63;43.45;;;19.10;99.90;;;;;;5137752;27;20023;-79
2022/08/24 00:08:13;;;;;;;72.47;35.70;;;19.10;99.90;;;;;;5137671;27;20472;-79
2022/08/24 00:10:39;;;;;;;90.10;48.03;;;19.10;99.90;;;;;;5137710;27;20047;-79
2022/08/24 00:13:05;;;;;;;91.05;49.65;;;19.10;99.90;;;;;;5127298;27;20053;-79
2022/08/24 00:15:31;;;;;;;78.55;40.40;;;19.10;99.90;;;;;;5117264;28;20039;-78
2022/08/24 00:17:57;;;;;;;91.97;51.95;;;19.10;99.90;;;;;;5117077;28;20424;-78
2022/08/24 00:20:22;;;;;;;103.63;52.78;;;19.10;99.90;;;;;;5115480;28;20027;-76
2022/08/24 00:22:48;;;;;;;68.40;32.45;;;19.10;99.90;;;;;;5115661;28;20461;-75
2022/08/24 00:25:14;;;;;;;63.80;31.80;;;19.10;99.90;;;;;;5121144;27;20080;-79
2022/08/24 00:27:41;;;;;;;70.97;32.13;;;19.00;99.90;;;;;;5137619;27;20030;-76
2022/08/24 00:30:14;;;;;;;68.35;32.05;;;18.90;99.90;;;;;;5135868;27;20473;-75
2022/08/24 00:32:40;;;;;;;74.85;32.80;;;18.80;99.90;;;;;;5136164;27;20024;-76
2022/08/24 00:35:07;;;;;;;64.07;31.88;;;18.80;99.90;;;;;;5121866;27;20481;-75
2022/08/24 00:37:34;;;;;;;65.60;32.15;;;18.80;99.90;;;;;;5115420;28;20067;-78
2022/08/24 00:40:00;;;;;;;71.47;32.40;;;18.80;99.90;;;;;;5116143;28;20024;-74
2022/08/24 00:42:25;;;;;;;65.20;30.23;;;18.80;99.90;;;;;;5116624;28;20172;-79
2022/08/24 00:44:51;;;;;;;69.35;34.63;;;18.80;99.90;;;;;;5116504;28;20031;-74
2022/08/24 00:47:20;;;;;;;66.07;32.50;;;18.80;99.90;;;;;;5116346;28;20027;-75
2022/08/24 00:49:58;;;;;;;73.32;31.73;;;18.80;99.90;;;;;;5114491;28;20050;-74
2022/08/24 00:52:30;;;;;;;72.85;33.85;;;18.80;99.90;;;;;;5116423;28;20084;-79
2022/08/24 00:55:00;;;;;;;60.63;31.20;;;18.70;99.90;;;;;;5116552;28;20043;-75
2022/08/24 00:57:30;;;;;;;69.90;30.35;;;18.70;99.90;;;;;;5116143;28;20851;-79
2022/08/24 01:00:09;;;;;;;71.47;31.85;;;18.70;99.90;;;;;;5115759;28;20047;-79
2022/08/24 01:02:40;;;;;;;66.13;29.77;;;18.70;99.90;;;;;;5108800;28;20016;-79
2022/08/24 01:05:09;;;;;;;66.75;29.10;;;18.70;99.90;;;;;;5114569;28;20031;-79
2022/08/24 01:07:36;;;;;;;62.88;28.77;;;18.70;99.90;;;;;;5098555;28;20032;-79
2022/08/24 01:10:10;;;;;;;63.42;29.58;;;18.70;99.90;;;;;;5099045;28;20055;-78
2022/08/24 01:12:38;;;;;;;65.30;31.50;;;18.80;99.90;;;;;;5100471;28;20046;-75
2022/08/24 01:15:06;;;;;;;66.47;31.02;;;18.70;99.90;;;;;;5115655;28;20480;-75
2022/08/24 01:20:18;;;;;;;64.78;29.80;;;18.80;99.90;;;;;;5115807;28;20026;-78
2022/08/24 01:23:12;;;;;;;69.32;34.97;;;18.80;99.90;;;;;;5114733;28;20019;-74
2022/08/24 01:25:41;;;;;;;68.22;31.08;;;18.70;99.90;;;;;;5115894;28;20026;-78
2022/08/24 01:28:12;;;;;;;60.80;29.70;;;18.70;99.90;;;;;;5115658;28;20019;-75
2022/08/24 01:30:38;;;;;;;62.72;31.52;;;18.80;99.90;;;;;;5114097;28;20114;-79
2022/08/24 01:33:07;;;;;;;62.85;29.42;;;18.70;99.90;;;;;;5115651;28;20118;-79
2022/08/24 01:35:34;;;;;;;60.60;29.42;;;18.70;99.90;;;;;;5114155;28;20036;-79
2022/08/24 01:38:03;;;;;;;59.95;31.98;;;18.80;99.90;;;;;;5114184;28;20427;-79
2022/08/24 01:40:39;;;;;;;66.55;30.83;;;18.80;99.90;;;;;;5113671;28;20114;-75
2022/08/24 01:43:06;;;;;;;58.00;28.25;;;18.80;99.90;;;;;;5114409;28;20027;-79
2022/08/24 01:45:32;;;;;;;65.18;28.17;;;18.80;99.90;;;;;;5115347;28;20530;-75
2022/08/24 01:47:58;;;;;;;51.50;28.08;;;18.80;99.90;;;;;;5113853;28;20044;-75
2022/08/24 01:50:25;;;;;;;52.63;27.48;;;18.80;99.90;;;;;;5113079;28;20043;-75
2022/08/24 01:52:51;;;;;;;53.58;27.17;;;18.80;99.90;;;;;;5115208;28;20049;-75
2022/08/24 01:55:18;;;;;;;59.20;28.58;;;18.80;99.90;;;;;;5113273;28;20028;-79
2022/08/24 01:57:44;;;;;;;47.60;25.60;;;18.80;99.90;;;;;;5114933;28;20047;-79
2022/08/24 02:00:15;;;;;;;57.05;28.02;;;18.80;99.90;;;;;;5114586;28;20047;-75
2022/08/24 02:02:42;;;;;;;48.33;27.10;;;18.90;99.90;;;;;;5115184;28;20076;-75
2022/08/24 02:05:11;;;;;;;53.25;28.42;;;18.80;99.90;;;;;;5113397;28;20474;-75
2022/08/24 02:07:37;;;;;;;52.03;27.90;;;18.80;99.90;;;;;;5114996;28;20028;-79
2022/08/24 02:10:06;;;;;;;49.63;26.77;;;18.90;99.90;;;;;;5114429;27;20051;-79
2022/08/24 02:12:32;;;;;;;48.38;26.40;;;18.90;99.90;;;;;;5113409;28;20027;-75
2022/08/24 02:14:59;;;;;;;47.40;25.73;;;18.90;99.90;;;;;;5113412;28;20035;-79
2022/08/24 02:17:25;;;;;;;52.40;28.73;;;18.90;99.90;;;;;;5113155;28;20030;-79
2022/08/24 02:19:50;;;;;;;46.53;25.75;;;19.00;99.90;;;;;;5113367;28;20103;-79
2022/08/24 02:22:16;;;;;;;52.42;26.25;;;19.00;99.90;;;;;;5113082;28;20015;-79
2022/08/24 02:24:42;;;;;;;50.10;26.45;;;19.00;99.90;;;;;;5113779;28;20100;-76
2022/08/24 02:27:07;;;;;;;53.33;28.17;;;19.00;99.90;;;;;;5112978;28;20464;-78
2022/08/24 02:29:33;;;;;;;51.67;28.30;;;19.00;99.90;;;;;;5114175;28;20023;-79
2022/08/24 02:31:59;;;;;;;52.65;27.17;;;19.00;99.90;;;;;;5113387;28;20058;-79
2022/08/24 02:34:24;;;;;;;48.72;25.90;;;19.00;99.90;;;;;;5114463;28;20032;-75
2022/08/24 02:36:52;;;;;;;51.90;26.92;;;19.00;99.90;;;;;;5113112;28;20051;-79
2022/08/24 02:39:18;;;;;;;43.83;26.08;;;19.00;99.90;;;;;;5113815;28;20026;-75
2022/08/24 02:41:44;;;;;;;48.08;25.60;;;19.00;99.90;;;;;;5112875;28;20118;-78
2022/08/24 02:44:10;;;;;;;49.80;28.08;;;19.10;99.90;;;;;;5114250;28;20532;-78
2022/08/24 02:46:35;;;;;;;45.83;26.10;;;19.10;99.90;;;;;;5114215;28;20094;-79
2022/08/24 02:49:01;;;;;;;47.50;26.10;;;19.10;99.90;;;;;;5113645;28;20480;-76
2022/08/24 02:51:29;;;;;;;54.05;26.60;;;19.10;99.90;;;;;;5113832;28;20032;-74
2022/08/24 02:53:56;;;;;;;48.58;26.15;;;19.10;99.90;;;;;;5113185;28;20122;-74
2022/08/24 02:56:22;;;;;;;46.15;27.85;;;19.10;99.90;;;;;;5113891;28;20031;-79
2022/08/24 02:58:48;;;;;;;50.80;27.10;;;19.10;99.90;;;;;;5113954;28;20481;-75
2022/08/24 03:01:14;;;;;;;49.70;27.45;;;19.10;99.90;;;;;;5112120;28;20476;-79
2022/08/24 03:03:40;;;;;;;45.17;26.48;;;19.10;99.90;;;;;;5114045;28;20475;-79
2022/08/24 03:06:07;;;;;;;52.42;27.92;;;19.10;99.90;;;;;;5112417;28;20020;-79
2022/08/24 03:08:34;;;;;;;45.50;26.55;;;19.10;99.90;;;;;;5113669;28;20028;-75
2022/08/24 03:10:59;;;;;;;45.85;27.67;;;19.20;99.90;;;;;;5112252;28;20024;-79
2022/08/24 03:13:29;;;;;;;49.25;25.63;;;19.10;99.90;;;;;;5113629;28;20507;-75
2022/08/24 03:15:56;;;;;;;46.05;24.92;;;19.10;99.90;;;;;;5113634;28;20115;-75
2022/08/24 03:18:24;;;;;;;43.33;24.95;;;19.10;99.90;;;;;;5112281;28;20020;-79
2022/08/24 03:20:50;;;;;;;48.08;26.42;;;19.20;99.90;;;;;;5113343;28;20024;-79
2022/08/24 03:23:16;;;;;;;43.90;27.77;;;19.20;99.90;;;;;;5113489;28;20430;-74
2022/08/24 03:25:42;;;;;;;43.25;24.40;;;19.20;99.90;;;;;;5112300;28;20027;-74
2022/08/24 03:28:07;;;;;;;43.83;25.80;;;19.10;99.90;;;;;;5112430;28;20023;-75
2022/08/24 03:30:33;;;;;;;42.25;25.33;;;19.20;99.90;;;;;;5111978;28;20016;-79
2022/08/24 03:32:59;;;;;;;42.67;24.77;;;19.20;99.90;;;;;;5113593;28;20031;-79
2022/08/24 03:35:25;;;;;;;43.53;25.08;;;19.20;99.90;;;;;;5111648;28;20036;-76
2022/08/24 03:37:50;;;;;;;51.33;27.42;;;19.20;99.90;;;;;;5112061;28;20023;-79
2022/08/24 03:40:19;;;;;;;46.17;25.48;;;19.20;99.90;;;;;;5113155;28;20434;-78
2022/08/24 03:42:44;;;;;;;47.72;26.95;;;19.20;99.90;;;;;;5113367;28;20077;-78
2022/08/24 03:45:11;;;;;;;50.72;27.55;;;19.20;99.90;;;;;;5111882;28;20019;-79
2022/08/24 03:47:37;;;;;;;43.67;24.92;;;19.30;99.90;;;;;;5113246;28;20023;-78
2022/08/24 03:50:04;;;;;;;47.15;27.13;;;19.30;99.90;;;;;;5112795;28;20056;-81
2022/08/24 03:52:30;;;;;;;51.60;26.92;;;19.20;99.90;;;;;;5113147;28;20015;-77
2022/08/24 03:54:55;;;;;;;47.38;26.13;;;19.20;99.90;;;;;;5113175;28;20035;-81
2022/08/24 03:57:21;;;;;;;42.53;24.55;;;19.10;99.90;;;;;;5111590;28;20469;-81
2022/08/24 03:59:48;;;;;;;39.78;22.90;;;19.00;99.90;;;;;;5112036;28;20031;-77
2022/08/24 04:02:13;;;;;;;42.05;23.88;;;19.00;99.90;;;;;;5111731;28;20043;-81
2022/08/24 04:04:39;;;;;;;43.47;25.23;;;19.00;99.90;;;;;;5113124;28;20019;-82
2022/08/24 04:07:05;;;;;;;39.28;23.88;;;19.10;99.90;;;;;;5111896;28;20023;-82
2022/08/24 04:09:30;;;;;;;43.08;24.60;;;19.10;99.90;;;;;;5111465;28;20026;-78
2022/08/24 04:11:56;;;;;;;47.15;25.38;;;19.10;99.90;;;;;;5112839;28;20507;-83
2022/08/24 04:14:22;;;;;;;49.67;25.67;;;19.10;99.90;;;;;;5112982;28;20501;-78
2022/08/24 04:16:47;;;;;;;41.40;24.25;;;19.00;99.90;;;;;;5113030;28;20069;-78
2022/08/24 04:19:13;;;;;;;49.97;24.15;;;19.00;99.90;;;;;;5112702;28;20042;-78
2022/08/24 04:21:39;;;;;;;45.28;25.17;;;19.00;99.90;;;;;;5113258;28;20022;-79
2022/08/24 04:24:07;;;;;;;52.97;25.60;;;19.00;99.90;;;;;;5111682;28;20524;-80
2022/08/24 04:26:35;;;;;;;43.67;24.25;;;19.00;99.90;;;;;;5112836;28;20561;-80
2022/08/24 04:29:01;;;;;;;46.28;23.67;;;19.00;99.90;;;;;;5113405;28;20370;-78
2022/08/24 04:31:29;;;;;;;51.38;26.52;;;19.10;99.90;;;;;;5112950;28;20038;-78
2022/08/24 04:33:55;;;;;;;52.58;26.58;;;19.10;99.90;;;;;;5112817;28;20473;-81
2022/08/24 04:36:22;;;;;;;57.28;26.60;;;19.10;99.90;;;;;;5111422;28;20031;-81
2022/08/24 04:38:49;;;;;;;45.92;27.25;;;19.10;99.90;;;;;;5112745;28;20031;-82
2022/08/24 04:41:19;;;;;;;44.03;26.65;;;19.20;99.90;;;;;;5112769;28;20023;-79
2022/08/24 04:43:45;;;;;;;51.35;28.75;;;19.20;99.90;;;;;;5111459;28;20023;-81
2022/08/24 04:46:14;;;;;;;50.90;26.17;;;19.20;99.90;;;;;;5111321;28;20054;-81
2022/08/24 04:48:41;;;;;;;48.60;26.90;;;19.20;99.90;;;;;;5114903;28;20111;-81
2022/08/24 04:51:10;;;;;;;49.97;27.67;;;19.20;99.90;;;;;;5116570;28;20077;-81
2022/08/24 04:53:36;;;;;;;55.42;28.55;;;19.20;99.90;;;;;;5115205;28;20016;-81
2022/08/24 04:56:02;;;;;;;56.13;27.70;;;19.20;99.90;;;;;;5116594;28;20043;-79
2022/08/24 04:58:29;;;;;;;48.72;26.55;;;19.20;99.90;;;;;;5115987;28;20091;-79
2022/08/24 05:00:55;;;;;;;56.33;26.70;;;19.30;99.90;;;;;;5116029;28;20020;-81
2022/08/24 05:03:21;;;;;;;48.33;24.50;;;19.30;99.90;;;;;;5115997;28;20055;-81
2022/08/24 05:05:49;;;;;;;47.45;28.95;;;19.40;99.90;;;;;;5115071;28;20015;-79
2022/08/24 05:08:18;;;;;;;50.20;27.30;;;19.50;99.90;;;;;;5115998;28;20423;-82
2022/08/24 05:10:46;;;;;;;55.33;27.30;;;19.50;99.90;;;;;;5114772;28;20027;-79
2022/08/24 05:13:12;;;;;;;50.28;27.65;;;19.50;99.90;;;;;;5115724;28;20061;-80
2022/08/24 05:15:43;;;;;;;57.38;28.25;;;19.50;99.90;;;;;;5115503;28;20063;-81
2022/08/24 05:18:09;;;;;;;48.35;26.83;;;19.60;99.90;;;;;;5115584;28;20080;-79
2022/08/24 05:20:37;;;;;;;57.00;27.33;;;19.60;99.90;;;;;;5115494;28;20099;-82
2022/08/24 05:23:03;;;;;;;52.42;27.35;;;19.60;99.90;;;;;;5114016;28;20027;-82
2022/08/24 05:25:29;;;;;;;47.25;25.40;;;19.60;99.90;;;;;;5116691;27;20023;-83
2022/08/24 05:27:55;;;;;;;50.58;26.60;;;19.60;99.90;;;;;;5115072;28;20031;-79
2022/08/24 05:30:20;;;;;;;48.47;26.02;;;19.60;99.90;;;;;;5105668;28;20570;-83
2022/08/24 05:32:47;;;;;;;52.25;25.58;;;19.60;99.90;;;;;;5115114;28;20081;-83
2022/08/24 05:35:13;;;;;;;53.13;26.10;;;19.70;99.90;;;;;;5115100;28;20039;-80
2022/08/24 05:37:39;;;;;;;50.47;28.08;;;19.80;99.90;;;;;;5115237;28;20050;-82
2022/08/24 05:40:08;;;;;;;47.78;26.77;;;19.80;99.90;;;;;;5115002;28;20031;-81
2022/08/24 05:42:35;;;;;;;42.30;25.20;;;19.90;99.90;;;;;;5115036;28;20123;-82
2022/08/24 05:45:01;;;;;;;43.70;23.27;;;20.00;99.90;;;;;;5115001;27;20473;-80
2022/08/24 05:47:27;;;;;;;40.65;22.92;;;20.00;99.90;;;;;;5114914;28;20034;-83
2022/08/24 05:49:53;;;;;;;43.80;24.73;;;20.10;99.90;;;;;;5113322;28;20131;-80
2022/08/24 05:52:21;;;;;;;38.60;24.27;;;20.20;99.90;;;;;;5115001;28;20469;-83
2022/08/24 05:54:58;;;;;;;36.28;20.20;;;20.20;99.90;;;;;;5114737;28;20046;-82
2022/08/24 05:57:25;;;;;;;32.78;20.83;;;20.30;99.90;;;;;;5114860;28;20073;-82
2022/08/24 05:59:51;;;;;;;38.45;22.98;;;20.30;99.90;;;;;;5114630;28;20026;-82
2022/08/24 06:02:18;;;;;;;40.33;23.33;;;20.30;99.90;;;;;;5114825;28;20504;-82
2022/08/24 06:04:44;;;;;;;37.85;24.13;;;20.40;99.90;;;;;;5114597;28;20028;-79
2022/08/24 06:07:14;;;;;;;35.97;23.15;;;20.30;99.90;;;;;;5112829;28;20046;-82
2022/08/24 06:09:41;;;;;;;36.50;22.08;;;20.30;99.90;;;;;;5112518;28;20027;-81
2022/08/24 06:12:08;;;;;;;38.63;18.52;;;20.30;99.90;;;;;;5114086;28;20488;-78
2022/08/24 06:14:34;;;;;;;39.58;19.33;;;20.30;99.90;;;;;;5113882;28;20040;-79
2022/08/24 06:17:02;;;;;;;30.25;17.73;;;20.40;99.90;;;;;;5114298;28;20469;-81
2022/08/24 06:19:28;;;;;;;28.63;16.60;;;20.50;99.90;;;;;;5114351;28;20469;-81
2022/08/24 06:21:54;;;;;;;34.08;16.80;;;20.60;99.90;;;;;;5099687;28;20078;-79
2022/08/24 06:27:21;;;;;;;30.60;16.52;;;20.80;99.90;;;;;;5108232;28;20038;-77
2022/08/24 06:29:59;;;;;;;28.88;16.92;;;20.80;99.90;;;;;;5095787;27;20384;-77
2022/08/24 06:32:25;;;;;;;33.40;17.63;;;20.80;99.90;;;;;;5100853;27;20060;-78
2022/08/24 06:34:54;;;;;;;32.92;15.82;;;20.80;99.90;;;;;;5122162;27;20027;-79
2022/08/24 06:37:25;;;;;;;37.13;16.90;;;20.80;99.90;;;;;;5101159;28;20020;-78
2022/08/24 06:39:54;;;;;;;28.55;15.20;;;20.80;99.90;;;;;;5093673;28;20028;-78
2022/08/24 06:42:20;;;;;;;35.85;16.20;;;20.90;99.90;;;;;;5093340;28;20032;-80
2022/08/24 06:44:46;;;;;;;31.25;15.55;;;20.90;99.90;;;;;;5092877;28;20089;-81
2022/08/24 06:47:12;;;;;;;28.80;14.52;;;21.00;99.90;;;;;;5091815;28;20027;-82
2022/08/24 06:49:38;;;;;;;24.85;14.05;;;21.00;99.90;;;;;;5092712;28;20048;-81
2022/08/24 06:52:04;;;;;;;23.95;15.35;;;21.00;99.90;;;;;;5093589;28;20052;-81
2022/08/24 06:54:31;;;;;;;31.88;16.20;;;21.10;99.90;;;;;;5091804;28;20043;-80
2022/08/24 06:56:58;;;;;;;24.10;14.57;;;21.10;99.90;;;;;;5091488;28;20051;-81
2022/08/24 06:59:28;;;;;;;28.40;15.82;;;21.10;99.90;;;;;;5089897;28;20386;-81
2022/08/24 07:01:56;;;;;;;31.33;17.15;;;21.20;99.90;;;;;;5089145;28;20103;-82
2022/08/24 07:04:25;;;;;;;29.42;15.23;;;21.20;99.90;;;;;;5089049;28;20024;-82
2022/08/24 07:06:51;;;;;;;31.45;15.85;;;21.30;99.90;;;;;;5089561;28;20397;-81
2022/08/24 07:09:17;;;;;;;28.48;15.27;;;21.40;99.90;;;;;;5091705;28;20024;-80
2022/08/24 07:11:43;;;;;;;31.90;16.58;;;21.40;99.90;;;;;;5093147;28;20020;-81
2022/08/24 07:14:08;;;;;;;28.27;14.52;;;21.50;99.90;;;;;;5112548;28;20114;-80
2022/08/24 07:16:34;;;;;;;25.00;15.05;;;21.60;99.90;;;;;;5113173;28;20076;-81
2022/08/24 07:19:01;;;;;;;31.90;14.60;;;21.70;99.90;;;;;;5112991;28;20034;-81
2022/08/24 07:21:27;;;;;;;28.20;14.52;;;21.80;99.90;;;;;;5113017;28;20381;-81
2022/08/24 07:23:56;;;;;;;26.52;16.00;;;22.00;99.90;;;;;;5113316;28;20071;-81
2022/08/24 07:26:23;;;;;;;29.58;16.20;;;22.10;99.90;;;;;;5113376;28;20051;-81
2022/08/24 07:29:00;;;;;;;24.52;14.43;;;22.00;99.90;;;;;;5113404;28;20560;-81
2022/08/24 07:31:26;;;;;;;24.42;15.10;;;22.10;99.90;;;;;;5111880;28;20016;-81
2022/08/24 07:33:52;;;;;;;22.98;15.05;;;21.90;99.90;;;;;;5113281;28;20046;-80
2022/08/24 07:36:18;;;;;;;31.05;14.93;;;22.10;99.90;;;;;;5113046;28;20473;-80
2022/08/24 07:38:44;;;;;;;28.55;14.98;;;22.10;99.90;;;;;;5113129;28;20024;-81
2022/08/24 07:41:09;;;;;;;25.27;13.93;;;22.00;99.90;;;;;;5112967;28;20031;-82
2022/08/24 07:43:35;;;;;;;22.65;14.10;;;22.10;99.90;;;;;;5113168;28;20057;-80
2022/08/24 07:46:04;;;;;;;30.48;14.60;;;22.20;99.90;;;;;;5112986;28;20035;-81
2022/08/24 07:48:30;;;;;;;22.23;13.40;;;22.20;99.90;;;;;;5113013;28;20024;-80
2022/08/24 07:50:58;;;;;;;28.52;13.40;;;22.20;99.90;;;;;;5112928;28;20055;-81
2022/08/24 07:53:24;;;;;;;21.08;12.88;;;22.20;99.90;;;;;;5113213;28;20027;-81
2022/08/24 07:55:55;;;;;;;18.20;11.18;;;22.30;99.90;;;;;;5112873;28;20034;-81
2022/08/24 07:58:21;;;;;;;26.63;12.50;;;22.30;99.90;;;;;;5112817;28;20102;-81
2022/08/24 08:00:48;;;;;;;27.50;12.20;;;22.40;99.90;;;;;;5112706;28;20201;-80
2022/08/24 08:03:14;;;;;;;21.00;11.07;;;22.40;99.90;;;;;;5112790;28;20538;-81
2022/08/24 08:05:40;;;;;;;19.70;11.52;;;22.50;99.90;;;;;;5112871;28;20023;-81
2022/08/24 08:08:06;;;;;;;22.65;11.48;;;22.50;99.90;;;;;;5112792;28;20031;-81
2022/08/24 08:10:34;;;;;;;22.85;12.07;;;22.50;99.90;;;;;;5112341;28;20034;-80
2022/08/24 08:13:01;;;;;;;24.98;11.25;;;22.70;99.90;;;;;;5112643;28;20026;-80
2022/08/24 08:15:27;;;;;;;23.08;10.80;;;22.80;99.90;;;;;;5112460;28;20032;-80
2022/08/24 08:17:52;;;;;;;20.58;12.00;;;22.80;99.90;;;;;;5113217;28;20392;-81
2022/08/24 08:20:18;;;;;;;21.70;10.70;;;22.70;99.90;;;;;;5112064;28;20484;-82
2022/08/24 08:25:28;;;;;;;26.20;11.93;;;22.80;99.90;;;;;;5116984;28;20034;-80
2022/08/24 08:27:54;;;;;;;26.60;11.75;;;22.90;99.90;;;;;;5116818;28;20528;-81
2022/08/24 08:30:19;;;;;;;19.50;10.82;;;23.00;99.90;;;;;;5116280;28;20102;-82
2022/08/24 08:32:45;;;;;;;19.90;10.95;;;23.30;99.90;;;;;;5116811;28;20503;-81
2022/08/24 08:35:11;;;;;;;24.95;11.23;;;23.40;99.90;;;;;;5116662;28;20070;-81
2022/08/24 08:37:37;;;;;;;18.63;9.75;;;23.60;99.90;;;;;;5116516;28;20154;-81
2022/08/24 08:40:06;;;;;;;23.27;10.20;;;23.70;99.90;;;;;;5115775;28;20024;-82
2022/08/24 08:42:56;;;;;;;25.83;12.25;;;23.60;99.90;;;;;;5116515;27;20034;-81
2022/08/24 08:45:39;;;;;;;22.77;10.45;;;23.60;99.90;;;;;;5116291;28;20047;-81
2022/08/24 08:48:28;;;;;;;20.77;10.25;;;23.50;99.90;;;;;;5115122;28;20016;-81
2022/08/24 08:51:21;;;;;;;19.45;11.57;;;23.40;99.90;;;;;;5114961;28;20114;-82
2022/08/24 08:54:02;;;;;;;20.13;11.43;;;23.60;99.90;;;;;;5116324;28;20028;-81
2022/08/24 08:56:39;;;;;;;18.52;10.77;;;23.60;99.90;;;;;;5116127;28;20043;-81
2022/08/24 08:59:18;;;;;;;27.60;11.02;;;23.70;99.90;;;;;;5114582;28;20020;-81
2022/08/24 09:02:16;;;;;;;26.13;10.98;;;23.80;99.90;;;;;;5115935;28;20016;-81
2022/08/24 09:05:19;;;;;;;24.08;12.13;;;24.10;99.90;;;;;;5106835;28;20032;-81
2022/08/24 09:07:49;;;;;;;22.98;11.52;;;24.30;99.90;;;;;;5114915;28;20377;-81
2022/08/24 09:10:35;;;;;;;25.50;11.13;;;24.40;99.90;;;;;;5115496;28;20107;-81
2022/08/24 09:13:12;;;;;;;25.27;12.07;;;24.40;99.90;;;;;;5114452;28;20020;-82
2022/08/24 09:16:02;;;;;;;20.30;11.10;;;24.60;99.90;;;;;;5116025;28;20122;-81
2022/08/24 09:18:56;;;;;;;20.83;10.82;;;24.70;99.90;;;;;;5116082;28;20483;-81
2022/08/24 09:21:37;;;;;;;27.55;12.10;;;24.80;99.90;;;;;;5103396;28;20031;-82
2022/08/24 09:24:09;;;;;;;25.45;9.27;;;25.20;99.90;;;;;;5114392;28;20023;-82
2022/08/24 09:27:04;;;;;;;25.23;10.88;;;25.10;99.90;;;;;;5111913;28;20111;-82
2022/08/24 09:30:07;;;;;;;28.15;12.15;;;25.00;99.90;;;;;;5092851;28;20067;-82
2022/08/24 09:32:36;;;;;;;30.38;10.75;;;25.00;99.90;;;;;;5095391;28;20248;-82
2022/08/24 09:35:05;;;;;;;23.38;10.98;;;25.00;99.90;;;;;;5093510;28;20162;-82
2022/08/24 09:37:33;;;;;;;25.13;10.68;;;25.40;99.90;;;;;;5094995;28;20089;-82
2022/08/24 09:40:17;;;;;;;37.63;11.80;;;25.30;99.90;;;;;;5094519;28;20382;-82
2022/08/24 09:43:09;;;;;;;28.92;11.80;;;25.10;99.90;;;;;;5093483;28;20035;-82
2022/08/24 09:45:59;;;;;;;27.20;11.63;;;25.20;99.90;;;;;;5094942;28;20102;-82
2022/08/24 09:48:35;;;;;;;26.30;11.40;;;25.30;99.90;;;;;;5094659;28;20028;-82
2022/08/24 09:51:12;;;;;;;28.42;11.80;;;25.20;99.90;;;;;;5094127;28;20063;-82
2022/08/24 09:54:26;;;;;;;27.73;10.70;;;25.00;99.90;;;;;;5094911;28;20112;-82
2022/08/24 09:57:21;;;;;;;35.80;11.32;;;24.90;99.90;;;;;;5084576;28;20562;-82
2022/08/24 10:00:14;;;;;;;29.48;9.75;;;25.10;99.90;;;;;;5094349;28;20024;-82
2022/08/24 10:02:51;;;;;;;29.83;9.45;;;25.00;99.90;;;;;;5094412;28;20031;-82
2022/08/24 10:05:26;;;;;;;34.55;9.93;;;25.30;99.90;;;;;;5094558;28;20020;-82
2022/08/24 10:08:29;;;;;;;32.67;8.98;;;25.40;99.90;;;;;;5093062;28;20487;-82
2022/08/24 10:11:25;;;;;;;30.73;10.27;;;25.40;99.90;;;;;;5093809;28;20026;-82
2022/08/24 10:14:05;;;;;;;21.92;9.00;;;25.60;99.90;;;;;;5112951;28;20114;-82
2022/08/24 10:16:56;;;;;;;31.33;9.43;;;26.10;99.90;;;;;;5114456;28;20446;-82
2022/08/24 10:19:56;;;;;;;32.17;9.32;;;26.00;98.30;;;;;;5113084;28;20035;-82
2022/08/24 10:22:46;;;;;;;25.40;8.45;;;25.80;99.90;;;;;;5114757;28;20023;-82
2022/08/24 10:25:39;;;;;;;24.00;8.35;;;25.50;99.90;;;;;;5114066;28;20491;-82
2022/08/24 10:28:36;;;;;;;31.20;9.40;;;25.70;99.90;;;;;;5114368;28;20054;-82
2022/08/24 10:31:06;;;;;;;27.15;9.07;;;25.90;99.90;;;;;;5112757;28;20110;-83
2022/08/24 10:33:56;;;;;;;29.83;8.75;;;25.90;98.50;;;;;;5113129;28;20034;-83
2022/08/24 10:36:47;;;;;;;24.40;8.40;;;26.20;99.90;;;;;;5112826;28;20042;-83
2022/08/24 10:39:41;;;;;;;37.83;10.52;;;26.40;98.80;;;;;;5112914;28;20487;-82
2022/08/24 10:45:40;;;;;;;36.80;9.32;;;26.70;92.50;;;;;;5113320;28;20038;-82
2022/08/24 10:48:30;;;;;;;36.00;8.77;;;26.80;90.70;;;;;;5113973;28;20484;-82
2022/08/24 10:51:16;;;;;;;30.77;8.68;;;26.90;91.90;;;;;;5112677;28;20404;-82
2022/08/24 10:53:48;;;;;;;30.60;8.18;;;26.80;99.20;;;;;;5113628;28;20110;-83
2022/08/24 10:56:18;;;;;;;22.58;8.85;;;26.40;95.20;;;;;;5113759;28;20042;-83
2022/08/24 10:58:55;;;;;;;24.73;7.95;;;26.20;98.60;;;;;;5112746;28;20032;-83
2022/08/24 11:01:25;;;;;;;34.53;9.07;;;26.20;98.90;;;;;;5113589;28;20098;-83
2022/08/24 11:04:01;;;;;;;29.85;9.27;;;26.40;92.90;;;;;;5112416;28;20024;-82
2022/08/24 11:06:32;;;;;;;26.27;8.80;;;26.60;92.20;;;;;;5113747;28;20020;-83
2022/08/24 11:09:06;;;;;;;21.85;8.02;;;26.80;91.60;;;;;;5113416;28;20054;-82
2022/08/24 11:11:44;;;;;;;28.08;9.23;;;26.90;88.10;;;;;;5113360;28;20020;-82
2022/08/24 11:14:27;;;;;;;30.38;9.45;;;26.70;95.70;;;;;;5113690;28;20047;-83
2022/08/24 11:17:17;;;;;;;24.67;8.85;;;26.40;98.40;;;;;;5113469;28;20062;-82
2022/08/24 11:19:42;;;;;;;27.65;8.57;;;26.20;95.80;;;;;;5113146;28;20031;-83
2022/08/24 11:22:35;;;;;;;26.95;9.05;;;26.30;95.70;;;;;;5112327;28;20032;-82
2022/08/24 11:25:22;;;;;;;30.45;8.50;;;26.60;94.90;;;;;;5113151;28;20015;-83
2022/08/24 11:27:50;;;;;;;24.52;8.63;;;26.90;91.80;;;;;;5113245;28;20023;-83
2022/08/24 11:30:19;;;;;;;27.60;9.40;;;27.20;88.00;;;;;;5113086;28;20377;-82
2022/08/24 11:32:51;;;;;;;27.13;9.52;;;27.00;88.90;;;;;;5111945;28;20020;-82
2022/08/24 11:35:33;;;;;;;27.73;8.48;;;26.80;88.80;;;;;;5113515;28;20055;-84
2022/08/24 11:38:08;;;;;;;39.08;9.38;;;26.60;86.70;;;;;;5111721;28;20020;-83
2022/08/24 11:40:38;;;;;;;31.70;7.70;;;26.60;88.70;;;;;;5111630;28;20376;-82
2022/08/24 11:43:10;;;;;;;27.27;8.48;;;26.60;88.90;;;;;;5112758;28;20030;-83
2022/08/24 11:45:46;;;;;;;26.15;9.05;;;26.50;91.20;;;;;;5111677;28;20115;-83
2022/08/24 11:48:34;;;;;;;22.08;8.63;;;26.50;94.80;;;;;;5112951;28;20015;-83
2022/08/24 11:51:35;;;;;;;21.77;7.72;;;26.40;95.70;;;;;;5112963;28;20382;-83
2022/08/24 11:54:46;;;;;;;32.40;8.90;;;26.30;95.40;;;;;;5088718;28;20525;-83
2022/08/24 11:57:12;;;;;;;22.52;8.70;;;26.10;97.20;;;;;;5096448;28;20477;-83
2022/08/24 12:00:12;;;;;;;24.95;8.23;;;26.30;98.60;;;;;;5119763;27;20106;-83
2022/08/24 12:02:54;;;;;;;28.80;8.73;;;26.40;96.50;;;;;;5119614;27;20362;-83
2022/08/24 12:05:52;;;;;;;26.80;9.00;;;26.60;93.80;;;;;;5119705;27;20035;-83
2022/08/24 12:08:17;;;;;;;25.13;8.50;;;26.80;92.90;;;;;;5119698;27;20099;-83
2022/08/24 12:11:05;;;;;;;27.95;8.93;;;26.90;91.60;;;;;;5118207;27;20075;-83
2022/08/24 12:14:03;;;;;;;39.65;9.95;;;27.00;88.10;;;;;;5119666;27;20072;-82
2022/08/24 12:16:34;;;;;;;32.78;8.85;;;27.30;92.50;;;;;;5118321;28;20064;-82
2022/08/24 12:19:09;;;;;;;21.73;7.90;;;26.90;93.00;;;;;;5119407;27;20524;-83
2022/08/24 12:21:39;;;;;;;34.92;9.38;;;26.60;93.30;;;;;;5119635;27;20019;-83
2022/08/24 12:24:17;;;;;;;26.85;9.10;;;26.40;95.30;;;;;;5118187;28;20019;-83
2022/08/24 12:27:05;;;;;;;29.33;8.65;;;26.50;93.90;;;;;;5099242;28;20107;-83
2022/08/24 12:29:45;;;;;;;30.20;7.75;;;26.70;86.10;;;;;;5098877;28;20020;-82
2022/08/24 12:32:27;;;;;;;27.02;8.05;;;26.90;85.60;;;;;;5098874;28;20020;-83
2022/08/24 12:34:55;;;;;;;24.85;8.27;;;27.10;87.50;;;;;;5111316;28;20035;-82
2022/08/24 12:37:42;;;;;;;30.98;8.45;;;27.50;86.90;;;;;;5119579;27;20020;-82
2022/08/24 12:40:16;;;;;;;28.05;7.40;;;27.50;86.70;;;;;;5117699;28;20472;-82
2022/08/24 12:42:54;;;;;;;18.20;7.65;;;27.30;89.40;;;;;;5117944;28;20020;-83
2022/08/24 12:45:23;;;;;;;28.27;9.00;;;26.90;90.50;;;;;;5118305;28;20440;-82
2022/08/24 12:47:56;;;;;;;24.52;8.75;;;26.80;94.80;;;;;;5117782;28;20114;-83
2022/08/24 12:50:37;;;;;;;28.55;8.68;;;26.60;93.90;;;;;;5117722;28;20404;-83
2022/08/24 12:53:20;;;;;;;30.75;7.40;;;26.50;98.10;;;;;;5117980;28;20087;-83
2022/08/24 12:56:22;;;;;;;29.80;8.15;;;26.60;97.80;;;;;;5119158;27;20035;-84
2022/08/24 12:58:54;;;;;;;21.63;7.75;;;26.50;96.60;;;;;;5117843;27;20504;-83
2022/08/24 13:01:23;;;;;;;24.70;9.05;;;26.60;97.20;;;;;;5119176;27;20019;-83
2022/08/24 13:04:01;;;;;;;35.22;8.13;;;26.70;92.50;;;;;;5119163;27;20023;-83